createdAt,value
2023-05-20T00:00:13.393Z,0.00
2023-05-20T00:01:13.371Z,0.00
2023-05-20T00:02:13.540Z,0.00
2023-05-20T00:03:13.832Z,0.00
2023-05-20T00:04:13.391Z,0.00
2023-05-20T00:05:13.425Z,0.00
2023-05-20T00:06:13.198Z,0.00
2023-05-20T00:07:13.098Z,0.00
2023-05-20T00:08:13.127Z,0.00
2023-05-20T00:09:12.980Z,0.00
2023-05-20T00:10:12.984Z,0.00
2023-05-20T00:11:12.728Z,0.00
2023-05-20T00:12:13.497Z,0.00
2023-05-20T00:13:13.690Z,0.00
2023-05-20T00:14:13.487Z,0.00
2023-05-20T00:15:13.309Z,0.00
2023-05-20T00:16:13.333Z,0.00
2023-05-20T00:17:13.230Z,0.00
2023-05-20T00:18:13.048Z,0.00
2023-05-20T00:19:13.072Z,0.00
2023-05-20T00:20:13.074Z,0.00
2023-05-20T00:21:12.849Z,0.00
2023-05-20T00:22:12.640Z,0.00
2023-05-20T00:23:13.630Z,0.00
2023-05-20T00:24:13.375Z,0.00
2023-05-20T00:25:13.471Z,0.00
2023-05-20T00:26:13.356Z,0.00
2023-05-20T00:27:13.199Z,0.00
2023-05-20T00:28:12.989Z,0.00
2023-05-20T00:29:12.854Z,0.00
2023-05-20T00:30:13.790Z,0.00
2023-05-20T00:31:12.598Z,0.00
2023-05-20T00:32:13.464Z,0.00
2023-05-20T00:33:13.381Z,0.00
2023-05-20T00:34:13.416Z,0.00
2023-05-20T00:35:13.309Z,0.00
2023-05-20T00:36:13.434Z,0.00
2023-05-20T00:37:13.488Z,0.00
2023-05-20T00:38:13.252Z,0.00
2023-05-20T00:39:13.382Z,0.00
2023-05-20T00:40:15.503Z,0.00
2023-05-20T00:41:13.533Z,0.00
2023-05-20T00:42:13.810Z,0.00
2023-05-20T00:43:13.612Z,0.00
2023-05-20T00:44:13.400Z,0.00
2023-05-20T00:45:13.245Z,0.00
2023-05-20T00:46:13.374Z,0.00
2023-05-20T00:47:13.265Z,0.00
2023-05-20T00:48:13.106Z,0.00
2023-05-20T00:49:13.066Z,0.00
2023-05-20T00:50:13.068Z,0.00
2023-05-20T00:51:12.938Z,0.00
2023-05-20T00:52:12.869Z,0.00
2023-05-20T00:53:13.819Z,0.00
2023-05-20T00:54:12.846Z,0.00
2023-05-20T00:55:13.662Z,0.00
2023-05-20T00:56:13.839Z,0.00
2023-05-20T00:57:12.786Z,0.00
2023-05-20T00:58:13.501Z,0.00
2023-05-20T00:59:13.282Z,0.00
2023-05-20T01:00:13.140Z,0.00
2023-05-20T01:01:12.908Z,0.00
2023-05-20T01:02:12.740Z,0.00
2023-05-20T01:03:13.775Z,0.00
2023-05-20T01:04:13.553Z,0.00
2023-05-20T01:05:13.447Z,0.00
2023-05-20T01:06:13.452Z,0.00
2023-05-20T01:07:13.280Z,0.00
2023-05-20T01:08:13.033Z,0.00
2023-05-20T01:09:13.187Z,0.00
2023-05-20T01:10:12.937Z,0.00
2023-05-20T01:11:12.652Z,0.00
2023-05-20T01:12:13.465Z,0.00
2023-05-20T01:13:13.572Z,0.00
2023-05-20T01:14:13.505Z,0.00
2023-05-20T01:15:13.434Z,0.00
2023-05-20T01:16:13.647Z,0.00
2023-05-20T01:17:13.525Z,0.00
2023-05-20T01:18:13.433Z,0.00
2023-05-20T01:19:13.190Z,0.00
2023-05-20T01:20:13.147Z,0.00
2023-05-20T01:21:12.909Z,0.00
2023-05-20T01:22:12.713Z,0.00
2023-05-20T01:23:13.513Z,0.00
2023-05-20T01:24:13.606Z,0.00
2023-05-20T01:25:13.408Z,0.00
2023-05-20T01:26:13.250Z,0.00
2023-05-20T01:27:13.280Z,0.00
2023-05-20T01:28:13.258Z,0.00
2023-05-20T01:29:13.267Z,0.00
2023-05-20T01:30:13.125Z,0.00
2023-05-20T01:31:12.945Z,0.00
2023-05-20T01:32:12.774Z,0.00
2023-05-20T01:33:13.720Z,0.00
2023-05-20T01:34:13.855Z,0.00
2023-05-20T01:35:13.890Z,0.00
2023-05-20T01:36:12.713Z,0.00
2023-05-20T01:37:13.527Z,0.00
2023-05-20T01:38:13.475Z,0.00
2023-05-20T01:39:13.241Z,0.00
2023-05-20T01:40:13.049Z,0.00
2023-05-20T01:41:12.804Z,0.00
2023-05-20T01:42:13.636Z,0.00
2023-05-20T01:43:15.156Z,0.00
2023-05-20T01:44:12.684Z,0.00
2023-05-20T01:45:13.435Z,0.00
2023-05-20T01:46:15.019Z,0.00
2023-05-20T01:47:12.904Z,0.00
2023-05-20T01:48:12.838Z,0.00
2023-05-20T01:49:13.639Z,0.00
2023-05-20T01:50:13.398Z,0.00
2023-05-20T01:51:13.232Z,0.00
2023-05-20T01:52:13.101Z,0.00
2023-05-20T01:53:13.099Z,0.00
2023-05-20T01:54:12.802Z,0.00
2023-05-20T01:55:13.653Z,0.00
2023-05-20T01:56:13.487Z,0.00
2023-05-20T01:57:13.252Z,0.00
2023-05-20T01:58:13.099Z,0.00
2023-05-20T01:59:12.929Z,0.00
2023-05-20T02:00:12.944Z,0.00
2023-05-20T02:01:12.769Z,0.00
2023-05-20T02:02:13.617Z,0.00
2023-05-20T02:03:13.739Z,0.00
2023-05-20T02:04:13.594Z,0.00
2023-05-20T02:05:13.477Z,0.00
2023-05-20T02:06:13.537Z,0.00
2023-05-20T02:07:13.432Z,0.00
2023-05-20T02:08:13.209Z,0.00
2023-05-20T02:09:12.968Z,0.00
2023-05-20T02:10:17.835Z,0.00
2023-05-20T02:11:13.604Z,0.00
2023-05-20T02:12:13.612Z,0.00
2023-05-20T02:13:13.488Z,0.00
2023-05-20T02:14:13.585Z,0.00
2023-05-20T02:15:13.316Z,0.00
2023-05-20T02:16:13.140Z,0.00
2023-05-20T02:17:12.962Z,0.00
2023-05-20T02:18:12.836Z,0.00
2023-05-20T02:19:13.259Z,0.00
2023-05-20T02:20:13.372Z,0.00
2023-05-20T02:21:13.214Z,0.00
2023-05-20T02:22:13.173Z,0.00
2023-05-20T02:23:12.925Z,0.00
2023-05-20T02:24:12.873Z,0.00
2023-05-20T02:25:12.928Z,0.00
2023-05-20T02:26:12.808Z,0.00
2023-05-20T02:27:13.539Z,0.00
2023-05-20T02:28:13.281Z,0.00
2023-05-20T02:29:13.103Z,0.00
2023-05-20T02:30:13.030Z,0.00
2023-05-20T02:31:12.739Z,0.00
2023-05-20T02:32:13.664Z,0.00
2023-05-20T02:33:13.549Z,0.00
2023-05-20T02:34:13.354Z,0.00
2023-05-20T02:35:13.180Z,0.00
2023-05-20T02:36:13.256Z,0.00
2023-05-20T02:37:13.153Z,0.00
2023-05-20T02:38:13.105Z,0.00
2023-05-20T02:39:12.894Z,0.00
2023-05-20T02:40:12.715Z,0.00
2023-05-20T02:41:13.591Z,0.00
2023-05-20T02:42:13.346Z,0.00
2023-05-20T02:43:13.043Z,0.00
2023-05-20T02:44:13.161Z,0.00
2023-05-20T02:45:12.873Z,0.00
2023-05-20T02:46:13.902Z,0.00
2023-05-20T02:47:12.704Z,0.00
2023-05-20T02:48:13.471Z,0.00
2023-05-20T02:49:13.616Z,0.77
2023-05-20T02:50:13.452Z,0.77
2023-05-20T02:51:13.577Z,0.77
2023-05-20T02:52:13.527Z,0.77
2023-05-20T02:53:13.345Z,0.77
2023-05-20T02:54:13.161Z,1.53
2023-05-20T02:55:13.223Z,1.53
2023-05-20T02:56:13.013Z,1.53
2023-05-20T02:57:12.832Z,2.29
2023-05-20T02:58:13.679Z,2.29
2023-05-20T02:59:13.470Z,3.06
2023-05-20T03:00:13.555Z,3.06
2023-05-20T03:01:13.563Z,3.82
2023-05-20T03:02:13.480Z,4.59
2023-05-20T03:03:13.210Z,5.35
2023-05-20T03:04:13.139Z,6.12
2023-05-20T03:05:13.006Z,6.88
2023-05-20T03:06:12.759Z,7.65
2023-05-20T03:07:13.572Z,9.18
2023-05-20T03:08:13.441Z,10.71
2023-05-20T03:09:13.349Z,12.24
2023-05-20T03:10:13.164Z,13.77
2023-05-20T03:11:12.888Z,15.30
2023-05-20T03:12:12.706Z,18.36
2023-05-20T03:13:13.627Z,19.89
2023-05-20T03:14:13.411Z,22.95
2023-05-20T03:15:13.399Z,24.48
2023-05-20T03:16:15.541Z,30.60
2023-05-20T03:17:13.647Z,33.66
2023-05-20T03:18:13.525Z,36.72
2023-05-20T03:19:13.385Z,42.84
2023-05-20T03:20:13.447Z,48.96
2023-05-20T03:21:13.260Z,55.08
2023-05-20T03:22:13.460Z,61.20
2023-05-20T03:23:13.343Z,67.32
2023-05-20T03:24:13.447Z,73.44
2023-05-20T03:25:13.327Z,85.68
2023-05-20T03:26:13.384Z,91.80
2023-05-20T03:27:13.415Z,97.92
2023-05-20T03:28:13.406Z,97.92
2023-05-20T03:29:13.297Z,110.16
2023-05-20T03:30:13.052Z,134.64
2023-05-20T03:31:12.935Z,146.88
2023-05-20T03:32:12.681Z,146.88
2023-05-20T03:33:13.666Z,159.12
2023-05-20T03:34:13.546Z,183.60
2023-05-20T03:35:13.383Z,195.84
2023-05-20T03:36:13.340Z,195.84
2023-05-20T03:37:13.314Z,220.32
2023-05-20T03:38:13.434Z,220.32
2023-05-20T03:39:13.248Z,269.28
2023-05-20T03:40:13.042Z,269.28
2023-05-20T03:41:12.848Z,293.76
2023-05-20T03:42:13.849Z,318.24
2023-05-20T03:43:13.612Z,342.72
2023-05-20T03:44:13.558Z,367.20
2023-05-20T03:45:13.396Z,391.68
2023-05-20T03:46:13.202Z,391.68
2023-05-20T03:47:13.234Z,440.64
2023-05-20T03:48:13.034Z,489.60
2023-05-20T03:49:13.175Z,538.56
2023-05-20T03:50:12.922Z,538.56
2023-05-20T03:51:12.721Z,636.48
2023-05-20T03:52:13.602Z,636.48
2023-05-20T03:53:13.374Z,685.44
2023-05-20T03:54:13.189Z,734.40
2023-05-20T03:55:13.035Z,783.36
2023-05-20T03:56:12.952Z,783.36
2023-05-20T03:57:12.750Z,881.28
2023-05-20T03:58:13.780Z,881.28
2023-05-20T03:59:13.532Z,881.28
2023-05-20T04:00:13.341Z,979.20
2023-05-20T04:01:13.142Z,1175.04
2023-05-20T04:02:13.104Z,1272.96
2023-05-20T04:03:13.014Z,1272.96
2023-05-20T04:04:13.321Z,1370.88
2023-05-20T04:05:13.267Z,1468.80
2023-05-20T04:06:13.104Z,1468.80
2023-05-20T04:07:13.341Z,1468.80
2023-05-20T04:08:13.117Z,1566.72
2023-05-20T04:09:13.269Z,1566.72
2023-05-20T04:10:13.172Z,1762.56
2023-05-20T04:11:13.089Z,1566.72
2023-05-20T04:12:13.170Z,1762.56
2023-05-20T04:13:13.014Z,1762.56
2023-05-20T04:14:12.843Z,1958.40
2023-05-20T04:15:13.678Z,1958.40
2023-05-20T04:16:13.476Z,2154.24
2023-05-20T04:17:13.428Z,1958.40
2023-05-20T04:18:13.343Z,2154.24
2023-05-20T04:19:13.180Z,2350.08
2023-05-20T04:20:13.006Z,2350.08
2023-05-20T04:21:12.937Z,2350.08
2023-05-20T04:22:12.888Z,2350.08
2023-05-20T04:23:12.775Z,2350.08
2023-05-20T04:24:13.856Z,2741.76
2023-05-20T04:25:12.938Z,2741.76
2023-05-20T04:26:12.677Z,2741.76
2023-05-20T04:27:13.554Z,2741.76
2023-05-20T04:28:13.454Z,2741.76
2023-05-20T04:29:13.570Z,2741.76
2023-05-20T04:30:13.431Z,2937.60
2023-05-20T04:31:13.512Z,2937.60
2023-05-20T04:32:13.630Z,2937.60
2023-05-20T04:33:13.599Z,3133.44
2023-05-20T04:34:13.593Z,3133.44
2023-05-20T04:35:13.416Z,3133.44
2023-05-20T04:36:13.174Z,3133.44
2023-05-20T04:37:13.387Z,3133.44
2023-05-20T04:38:13.228Z,3133.44
2023-05-20T04:39:13.056Z,3133.44
2023-05-20T04:40:12.877Z,3133.44
2023-05-20T04:41:13.705Z,3133.44
2023-05-20T04:42:13.515Z,3133.44
2023-05-20T04:43:13.292Z,3133.44
2023-05-20T04:44:13.074Z,3133.44
2023-05-20T04:45:12.892Z,3133.44
2023-05-20T04:46:12.899Z,3133.44
2023-05-20T04:47:12.920Z,3133.44
2023-05-20T04:48:12.715Z,3133.44
2023-05-20T04:49:13.890Z,3133.44
2023-05-20T04:50:12.744Z,3133.44
2023-05-20T04:51:13.598Z,3133.44
2023-05-20T04:52:18.451Z,3133.44
2023-05-20T04:53:13.288Z,3133.44
2023-05-20T04:54:13.059Z,3133.44
2023-05-20T04:55:12.907Z,3133.44
2023-05-20T04:56:12.762Z,3133.44
2023-05-20T04:57:15.701Z,3133.44
2023-05-20T04:58:13.579Z,3133.44
2023-05-20T04:59:13.362Z,3133.44
2023-05-20T05:00:13.147Z,3133.44
2023-05-20T05:01:13.241Z,3133.44
2023-05-20T05:02:13.135Z,3133.44
2023-05-20T05:03:13.414Z,3525.12
2023-05-20T05:04:13.344Z,3133.44
2023-05-20T05:05:13.197Z,3133.44
2023-05-20T05:06:13.067Z,3133.44
2023-05-20T05:07:12.926Z,3133.44
2023-05-20T05:08:12.717Z,3133.44
2023-05-20T05:09:13.482Z,3133.44
2023-05-20T05:10:13.265Z,3133.44
2023-05-20T05:11:13.080Z,3133.44
2023-05-20T05:12:12.795Z,3133.44
2023-05-20T05:13:13.909Z,3133.44
2023-05-20T05:14:12.814Z,3133.44
2023-05-20T05:15:13.735Z,3133.44
2023-05-20T05:16:13.565Z,3133.44
2023-05-20T05:17:13.609Z,3133.44
2023-05-20T05:18:13.496Z,3133.44
2023-05-20T05:19:13.315Z,3133.44
2023-05-20T05:20:13.164Z,3133.44
2023-05-20T05:21:13.277Z,3133.44
2023-05-20T05:22:13.470Z,3133.44
2023-05-20T05:23:13.427Z,3133.44
2023-05-20T05:24:13.179Z,3133.44
2023-05-20T05:25:12.978Z,3133.44
2023-05-20T05:26:12.990Z,3133.44
2023-05-20T05:27:12.764Z,3133.44
2023-05-20T05:28:13.588Z,3525.12
2023-05-20T05:29:13.745Z,3133.44
2023-05-20T05:30:13.602Z,3525.12
2023-05-20T05:31:13.409Z,3916.80
2023-05-20T05:32:14.405Z,3916.80
2023-05-20T05:33:13.308Z,3916.80
2023-05-20T05:34:13.417Z,3525.12
2023-05-20T05:35:13.282Z,3525.12
2023-05-20T05:36:13.213Z,3916.80
2023-05-20T05:37:13.036Z,3916.80
2023-05-20T05:38:12.843Z,4308.48
2023-05-20T05:39:13.818Z,4700.16
2023-05-20T05:40:13.850Z,5091.84
2023-05-20T05:41:13.561Z,5091.84
2023-05-20T05:42:13.424Z,4700.16
2023-05-20T05:43:13.204Z,4700.16
2023-05-20T05:44:13.103Z,4700.16
2023-05-20T05:45:13.010Z,4308.48
2023-05-20T05:46:13.038Z,4308.48
2023-05-20T05:47:13.111Z,4308.48
2023-05-20T05:48:12.944Z,3916.80
2023-05-20T05:49:12.812Z,3916.80
2023-05-20T05:50:13.544Z,3525.12
2023-05-20T05:51:13.361Z,3525.12
2023-05-20T05:52:13.398Z,3916.80
2023-05-20T05:53:13.310Z,3525.12
2023-05-20T05:54:13.129Z,3525.12
2023-05-20T05:55:13.072Z,3916.80
2023-05-20T05:56:13.215Z,4308.48
2023-05-20T05:57:13.020Z,4308.48
2023-05-20T05:58:12.805Z,4308.48
2023-05-20T05:59:13.543Z,4308.48
2023-05-20T06:00:13.444Z,5091.84
2023-05-20T06:01:13.379Z,5875.20
2023-05-20T06:02:13.195Z,5483.52
2023-05-20T06:03:13.116Z,6266.88
2023-05-20T06:04:13.242Z,6266.88
2023-05-20T06:05:13.218Z,7050.24
2023-05-20T06:06:13.021Z,7833.60
2023-05-20T06:07:13.269Z,7833.60
2023-05-20T06:08:13.036Z,8616.96
2023-05-20T06:09:12.836Z,8616.96
2023-05-20T06:10:13.684Z,8616.96
2023-05-20T06:11:13.586Z,7050.24
2023-05-20T06:12:14.181Z,7833.60
2023-05-20T06:13:13.154Z,7050.24
2023-05-20T06:14:18.100Z,7833.60
2023-05-20T06:15:13.157Z,7833.60
2023-05-20T06:16:12.915Z,7833.60
2023-05-20T06:17:13.920Z,7833.60
2023-05-20T06:18:12.702Z,8616.96
2023-05-20T06:19:13.741Z,7833.60
2023-05-20T06:20:14.007Z,9400.32
2023-05-20T06:21:18.017Z,8616.96
2023-05-20T06:22:12.801Z,7833.60
2023-05-20T06:23:13.624Z,8616.96
2023-05-20T06:24:13.706Z,8616.96
2023-05-20T06:25:13.606Z,7833.60
2023-05-20T06:26:13.396Z,7833.60
2023-05-20T06:27:13.277Z,7050.24
2023-05-20T06:28:13.093Z,7050.24
2023-05-20T06:29:12.834Z,7050.24
2023-05-20T06:30:13.870Z,7833.60
2023-05-20T06:31:13.686Z,7833.60
2023-05-20T06:32:13.564Z,7833.60
2023-05-20T06:33:13.978Z,7833.60
2023-05-20T06:34:13.134Z,7050.24
2023-05-20T06:35:13.242Z,7050.24
2023-05-20T06:36:13.030Z,7833.60
2023-05-20T06:37:12.916Z,7833.60
2023-05-20T06:38:12.837Z,8616.96
2023-05-20T06:39:13.906Z,8616.96
2023-05-20T06:40:12.808Z,9400.32
2023-05-20T06:41:13.813Z,9400.32
2023-05-20T06:42:13.739Z,9400.32
2023-05-20T06:43:13.686Z,9400.32
2023-05-20T06:44:13.541Z,9400.32
2023-05-20T06:45:13.441Z,9400.32
2023-05-20T06:46:13.233Z,8616.96
2023-05-20T06:47:13.104Z,8616.96
2023-05-20T06:48:13.060Z,9400.32
2023-05-20T06:49:12.868Z,8616.96
2023-05-20T06:50:15.886Z,8616.96
2023-05-20T06:51:12.727Z,8616.96
2023-05-20T06:52:13.539Z,8616.96
2023-05-20T06:53:13.378Z,8616.96
2023-05-20T06:54:13.285Z,7833.60
2023-05-20T06:55:13.426Z,8616.96
2023-05-20T06:56:13.299Z,8616.96
2023-05-20T06:57:13.329Z,8616.96
2023-05-20T06:58:13.201Z,8616.96
2023-05-20T06:59:12.944Z,8616.96
2023-05-20T07:00:12.945Z,8616.96
2023-05-20T07:01:13.062Z,8616.96
2023-05-20T07:02:12.913Z,9400.32
2023-05-20T07:03:12.866Z,8616.96
2023-05-20T07:04:12.904Z,8616.96
2023-05-20T07:05:12.997Z,9400.32
2023-05-20T07:06:12.781Z,9400.32
2023-05-20T07:07:14.962Z,8616.96
2023-05-20T07:08:13.777Z,9400.32
2023-05-20T07:09:13.601Z,9400.32
2023-05-20T07:10:13.407Z,10183.68
2023-05-20T07:11:13.336Z,10183.68
2023-05-20T07:12:13.167Z,10183.68
2023-05-20T07:13:13.281Z,10183.68
2023-05-20T07:14:13.100Z,10967.04
2023-05-20T07:15:13.026Z,10967.04
2023-05-20T07:16:13.255Z,10183.68
2023-05-20T07:17:13.167Z,10967.04
2023-05-20T07:18:13.168Z,10967.04
2023-05-20T07:19:13.495Z,10967.04
2023-05-20T07:20:13.406Z,10967.04
2023-05-20T07:21:13.185Z,10967.04
2023-05-20T07:22:13.120Z,10967.04
2023-05-20T07:23:14.494Z,11750.40
2023-05-20T07:24:13.833Z,10967.04
2023-05-20T07:25:13.732Z,11750.40
2023-05-20T07:26:13.531Z,11750.40
2023-05-20T07:27:13.408Z,11750.40
2023-05-20T07:28:13.462Z,12533.76
2023-05-20T07:29:13.272Z,12533.76
2023-05-20T07:30:13.235Z,12533.76
2023-05-20T07:31:13.341Z,12533.76
2023-05-20T07:32:13.234Z,12533.76
2023-05-20T07:33:13.359Z,14100.48
2023-05-20T07:34:13.491Z,14100.48
2023-05-20T07:35:13.360Z,12533.76
2023-05-20T07:36:13.332Z,12533.76
2023-05-20T07:37:13.148Z,14100.48
2023-05-20T07:38:13.180Z,14100.48
2023-05-20T07:39:15.074Z,14100.48
2023-05-20T07:40:13.210Z,15667.20
2023-05-20T07:41:13.304Z,14100.48
2023-05-20T07:42:13.258Z,14100.48
2023-05-20T07:43:13.290Z,14100.48
2023-05-20T07:44:13.153Z,14100.48
2023-05-20T07:45:13.024Z,14100.48
2023-05-20T07:46:13.049Z,14100.48
2023-05-20T07:47:13.040Z,14100.48
2023-05-20T07:48:13.152Z,15667.20
2023-05-20T07:49:13.213Z,14100.48
2023-05-20T07:50:13.134Z,15667.20
2023-05-20T07:51:12.963Z,17233.92
2023-05-20T07:52:12.811Z,17233.92
2023-05-20T07:53:13.609Z,15667.20
2023-05-20T07:54:13.421Z,15667.20
2023-05-20T07:55:13.392Z,15667.20
2023-05-20T07:56:13.285Z,15667.20
2023-05-20T07:57:13.373Z,15667.20
2023-05-20T07:58:13.257Z,17233.92
2023-05-20T07:59:13.118Z,15667.20
2023-05-20T08:00:13.009Z,14100.48
2023-05-20T08:01:13.137Z,15667.20
2023-05-20T08:02:13.086Z,14100.48
2023-05-20T08:03:13.033Z,14100.48
2023-05-20T08:04:13.121Z,14100.48
2023-05-20T08:05:13.039Z,14100.48
2023-05-20T08:06:13.085Z,14100.48
2023-05-20T08:07:12.882Z,14100.48
2023-05-20T08:08:13.947Z,14100.48
2023-05-20T08:09:12.962Z,14100.48
2023-05-20T08:10:12.891Z,14100.48
2023-05-20T08:11:12.721Z,14100.48
2023-05-20T08:12:13.562Z,14100.48
2023-05-20T08:13:13.631Z,14100.48
2023-05-20T08:14:13.696Z,15667.20
2023-05-20T08:15:13.663Z,15667.20
2023-05-20T08:16:13.576Z,15667.20
2023-05-20T08:17:13.696Z,15667.20
2023-05-20T08:18:13.870Z,15667.20
2023-05-20T08:19:12.775Z,17233.92
2023-05-20T08:20:13.475Z,17233.92
2023-05-20T08:21:13.187Z,17233.92
2023-05-20T08:22:13.116Z,17233.92
2023-05-20T08:23:12.833Z,17233.92
2023-05-20T08:24:13.871Z,17233.92
2023-05-20T08:25:13.666Z,17233.92
2023-05-20T08:26:13.640Z,15667.20
2023-05-20T08:27:13.522Z,15667.20
2023-05-20T08:28:13.242Z,15667.20
2023-05-20T08:29:13.066Z,15667.20
2023-05-20T08:30:13.346Z,15667.20
2023-05-20T08:31:13.594Z,15667.20
2023-05-20T08:32:13.702Z,17233.92
2023-05-20T08:33:13.517Z,17233.92
2023-05-20T08:34:13.418Z,17233.92
2023-05-20T08:35:13.218Z,17233.92
2023-05-20T08:36:12.936Z,17233.92
2023-05-20T08:37:12.944Z,17233.92
2023-05-20T08:38:12.872Z,17233.92
2023-05-20T08:39:14.132Z,17233.92
2023-05-20T08:40:12.988Z,17233.92
2023-05-20T08:41:13.144Z,17233.92
2023-05-20T08:42:13.029Z,17233.92
2023-05-20T08:43:13.157Z,17233.92
2023-05-20T08:44:13.142Z,17233.92
2023-05-20T08:45:13.127Z,15667.20
2023-05-20T08:46:13.267Z,15667.20
2023-05-20T08:47:13.394Z,15667.20
2023-05-20T08:48:13.389Z,15667.20
2023-05-20T08:49:13.791Z,15667.20
2023-05-20T08:50:13.852Z,15667.20
2023-05-20T08:51:13.571Z,15667.20
2023-05-20T08:52:13.841Z,15667.20
2023-05-20T08:53:14.505Z,14100.48
2023-05-20T08:54:13.525Z,14100.48
2023-05-20T08:55:13.348Z,14100.48
2023-05-20T08:56:13.414Z,14100.48
2023-05-20T08:57:13.813Z,14100.48
2023-05-20T08:58:14.044Z,14100.48
2023-05-20T08:59:12.917Z,14100.48
2023-05-20T09:00:12.729Z,14100.48
2023-05-20T09:01:13.811Z,14100.48
2023-05-20T09:02:13.670Z,14100.48
2023-05-20T09:03:13.597Z,14100.48
2023-05-20T09:04:13.850Z,14100.48
2023-05-20T09:05:13.888Z,15667.20
2023-05-20T09:06:13.176Z,15667.20
2023-05-20T09:07:13.140Z,15667.20
2023-05-20T09:08:14.241Z,15667.20
2023-05-20T09:09:13.134Z,15667.20
2023-05-20T09:10:13.061Z,15667.20
2023-05-20T09:11:12.895Z,15667.20
2023-05-20T09:12:12.782Z,14100.48
2023-05-20T09:13:13.639Z,14100.48
2023-05-20T09:14:13.501Z,14100.48
2023-05-20T09:15:13.463Z,15667.20
2023-05-20T09:16:13.379Z,15667.20
2023-05-20T09:17:13.384Z,15667.20
2023-05-20T09:18:13.169Z,17233.92
2023-05-20T09:19:14.215Z,17233.92
2023-05-20T09:20:13.071Z,17233.92
2023-05-20T09:21:13.020Z,18800.64
2023-05-20T09:22:12.815Z,18800.64
2023-05-20T09:23:13.637Z,17233.92
2023-05-20T09:24:13.768Z,17233.92
2023-05-20T09:25:13.525Z,18800.64
2023-05-20T09:26:13.511Z,18800.64
2023-05-20T09:27:13.656Z,17233.92
2023-05-20T09:28:13.456Z,18800.64
2023-05-20T09:29:13.283Z,18800.64
2023-05-20T09:30:13.625Z,17233.92
2023-05-20T09:31:13.684Z,17233.92
2023-05-20T09:32:13.518Z,15667.20
2023-05-20T09:33:13.648Z,17233.92
2023-05-20T09:34:13.823Z,17233.92
2023-05-20T09:35:14.003Z,15667.20
2023-05-20T09:36:14.590Z,15667.20
2023-05-20T09:37:12.781Z,15667.20
2023-05-20T09:38:13.795Z,15667.20
2023-05-20T09:39:14.049Z,15667.20
2023-05-20T09:40:12.943Z,15667.20
2023-05-20T09:41:12.981Z,15667.20
2023-05-20T09:42:12.792Z,15667.20
2023-05-20T09:43:13.855Z,15667.20
2023-05-20T09:44:27.154Z,15667.20
2023-05-20T09:45:12.965Z,15667.20
2023-05-20T09:46:13.047Z,14100.48
2023-05-20T09:47:14.098Z,14100.48
2023-05-20T09:48:12.948Z,14100.48
2023-05-20T09:49:12.885Z,14100.48
2023-05-20T09:50:12.785Z,14100.48
2023-05-20T09:51:13.966Z,14100.48
2023-05-20T09:52:12.734Z,14100.48
2023-05-20T09:53:13.603Z,14100.48
2023-05-20T09:54:13.417Z,12533.76
2023-05-20T09:55:18.264Z,14100.48
2023-05-20T09:56:13.105Z,14100.48
2023-05-20T09:57:13.124Z,14100.48
2023-05-20T09:58:14.801Z,14100.48
2023-05-20T09:59:13.313Z,14100.48
2023-05-20T10:00:27.704Z,12533.76
2023-05-20T10:01:13.729Z,14100.48
2023-05-20T10:02:13.817Z,14100.48
2023-05-20T10:03:18.081Z,14100.48
2023-05-20T10:04:13.566Z,14100.48
2023-05-20T10:05:13.949Z,14100.48
2023-05-20T10:06:13.092Z,15667.20
2023-05-20T10:07:13.302Z,15667.20
2023-05-20T10:08:13.255Z,15667.20
2023-05-20T10:09:29.441Z,15667.20
2023-05-20T10:10:13.574Z,15667.20
2023-05-20T10:11:13.709Z,17233.92
2023-05-20T10:12:13.585Z,15667.20
2023-05-20T10:14:14.725Z,17233.92
2023-05-20T10:15:13.731Z,17233.92
2023-05-20T10:16:32.217Z,18800.64
2023-05-20T10:17:25.222Z,17233.92
2023-05-20T10:18:20.277Z,18800.64
2023-05-20T10:19:13.516Z,18800.64
2023-05-20T10:20:13.559Z,20367.36
2023-05-20T10:21:23.477Z,20367.36
2023-05-20T10:22:38.191Z,18800.64
2023-05-20T10:23:13.016Z,18800.64
2023-05-20T10:24:28.067Z,18800.64
2023-05-20T10:25:12.955Z,18800.64
2023-05-20T10:26:19.060Z,18800.64
2023-05-20T10:27:12.840Z,18800.64
2023-05-20T10:28:13.603Z,18800.64
2023-05-20T10:29:13.644Z,20367.36
2023-05-20T10:30:13.758Z,20367.36
2023-05-20T10:31:18.735Z,20367.36
2023-05-20T10:32:14.195Z,20367.36
2023-05-20T10:33:13.208Z,20367.36
2023-05-20T10:34:13.254Z,21934.08
2023-05-20T10:35:13.092Z,23500.80
2023-05-20T10:36:13.001Z,25067.52
2023-05-20T10:37:12.773Z,23500.80
2023-05-20T10:38:13.575Z,25067.52
2023-05-20T10:39:13.381Z,25067.52
2023-05-20T10:40:13.460Z,25067.52
2023-05-20T10:41:13.708Z,28200.96
2023-05-20T10:42:13.583Z,28200.96
2023-05-20T10:43:13.426Z,28200.96
2023-05-20T10:44:13.318Z,28200.96
2023-05-20T10:45:13.397Z,28200.96
2023-05-20T10:47:25.229Z,31334.40
2023-05-20T10:48:13.077Z,28200.96
2023-05-20T10:49:28.159Z,25067.52
2023-05-20T10:50:13.264Z,25067.52
2023-05-20T10:51:13.221Z,25067.52
2023-05-20T10:52:28.281Z,25067.52
2023-05-20T10:53:21.699Z,25067.52
2023-05-20T10:54:13.541Z,25067.52
2023-05-20T10:55:13.407Z,28200.96
2023-05-20T10:56:13.365Z,28200.96
2023-05-20T10:57:13.233Z,28200.96
2023-05-20T10:58:23.433Z,31334.40
2023-05-20T10:59:13.481Z,31334.40
2023-05-20T11:00:13.318Z,34467.84
2023-05-20T11:01:13.316Z,34467.84
2023-05-20T11:02:13.275Z,34467.84
2023-05-20T11:03:13.354Z,34467.84
2023-05-20T11:04:13.517Z,34467.84
2023-05-20T11:05:21.117Z,28200.96
2023-05-20T11:06:23.382Z,34467.84
2023-05-20T11:07:48.804Z,31334.40
2023-05-20T11:08:24.597Z,28200.96
2023-05-20T11:09:13.344Z,25067.52
2023-05-20T11:10:13.237Z,28200.96
2023-05-20T11:11:13.870Z,28200.96
2023-05-20T11:12:13.033Z,28200.96
2023-05-20T11:13:13.090Z,28200.96
2023-05-20T11:14:13.123Z,28200.96
2023-05-20T11:15:12.928Z,28200.96
2023-05-20T11:16:13.008Z,25067.52
2023-05-20T11:17:13.005Z,25067.52
2023-05-20T11:18:12.878Z,25067.52
2023-05-20T11:19:14.265Z,25067.52
2023-05-20T11:20:13.722Z,25067.52
2023-05-20T11:21:13.673Z,23500.80
2023-05-20T11:22:13.526Z,25067.52
2023-05-20T11:23:13.285Z,28200.96
2023-05-20T11:24:13.258Z,25067.52
2023-05-20T11:25:13.163Z,21934.08
2023-05-20T11:26:13.754Z,20367.36
2023-05-20T11:27:13.573Z,18800.64
2023-05-20T11:28:13.653Z,17233.92
2023-05-20T11:29:13.771Z,20367.36
2023-05-20T11:30:18.563Z,20367.36
2023-05-20T11:31:13.665Z,23500.80
2023-05-20T11:32:18.713Z,21934.08
2023-05-20T11:33:14.078Z,20367.36
2023-05-20T11:34:13.397Z,20367.36
2023-05-20T11:35:18.587Z,23500.80
2023-05-20T11:36:26.890Z,20367.36
2023-05-20T11:37:13.470Z,18800.64
2023-05-20T11:38:13.427Z,15667.20
2023-05-20T11:39:13.638Z,14100.48
2023-05-20T11:40:13.637Z,14100.48
2023-05-20T11:41:13.407Z,14100.48
2023-05-20T11:42:13.440Z,15667.20
2023-05-20T11:43:13.341Z,17233.92
2023-05-20T11:44:14.655Z,20367.36
2023-05-20T11:45:13.557Z,23500.80
2023-05-20T11:46:13.539Z,21934.08
2023-05-20T11:47:13.521Z,18800.64
2023-05-20T11:48:13.465Z,15667.20
2023-05-20T11:49:13.732Z,14100.48
2023-05-20T11:50:13.717Z,15667.20
2023-05-20T11:51:13.729Z,15667.20
2023-05-20T11:52:13.532Z,14100.48
2023-05-20T11:53:13.452Z,15667.20
2023-05-20T11:54:13.327Z,17233.92
2023-05-20T11:55:13.176Z,15667.20
2023-05-20T11:56:12.930Z,15667.20
2023-05-20T11:57:12.672Z,17233.92
2023-05-20T11:58:13.372Z,18800.64
2023-05-20T11:59:13.468Z,20367.36
2023-05-20T12:00:13.342Z,23500.80
2023-05-20T12:01:21.624Z,20367.36
2023-05-20T12:02:15.912Z,20367.36
2023-05-20T12:03:13.023Z,20367.36
2023-05-20T12:04:13.051Z,18800.64
2023-05-20T12:05:13.183Z,15667.20
2023-05-20T12:06:13.210Z,14100.48
2023-05-20T12:07:13.120Z,15667.20
2023-05-20T12:08:13.005Z,17233.92
2023-05-20T12:09:12.980Z,17233.92
2023-05-20T12:10:12.859Z,15667.20
2023-05-20T12:11:13.736Z,15667.20
2023-05-20T12:12:13.609Z,17233.92
2023-05-20T12:13:13.452Z,18800.64
2023-05-20T12:14:13.307Z,17233.92
2023-05-20T12:15:13.400Z,15667.20
2023-05-20T12:16:13.301Z,15667.20
2023-05-20T12:17:13.096Z,17233.92